Time;durP1;ratioP1;P1;durP2;ratioP2;P2;SDS_P1;SDS_P2;PMS_P1;PMS_P2;Temp;Humidity;BMP_temperature;BMP_pressure;BME280_temperature;BME280_humidity;BME280_pressure;Samples;Min_cycle;Max_cycle;Signal;HPM_P1;HPM_P2
2021/12/02 00:01:03;;;;;;;1.30;1.10;;;;;;;7.26;100.00;93616.44;5056467;28;20210;-60
2021/12/02 00:03:29;;;;;;;1.80;1.10;;;;;;;7.22;100.00;93618.47;5056449;28;20213;-60
2021/12/02 00:05:54;;;;;;;1.10;0.90;;;;;;;7.19;100.00;93610.41;5055937;28;20209;-58
2021/12/02 00:08:19;;;;;;;1.00;0.90;;;;;;;7.19;100.00;93622.03;5055897;28;20178;-58
2021/12/02 00:10:45;;;;;;;1.67;1.00;;;;;;;7.19;100.00;93621.25;5055862;28;20229;-59
2021/12/02 00:13:11;;;;;;;0.80;0.80;;;;;;;7.17;100.00;93618.22;5056321;28;20202;-59
2021/12/02 00:15:51;;;;;;;1.10;1.00;;;;;;;7.17;100.00;93621.69;5055980;28;20206;-58
2021/12/02 00:21:03;;;;;;;0.97;0.97;;;;;;;7.19;100.00;93613.88;5057421;28;20207;-61
2021/12/02 00:23:29;;;;;;;1.30;1.20;;;;;;;7.22;100.00;93623.13;5055922;28;20213;-59
2021/12/02 00:25:59;;;;;;;1.33;1.23;;;;;;;7.22;100.00;93615.75;5056414;28;20205;-60
2021/12/02 00:28:26;;;;;;;1.60;1.07;;;;;;;7.22;100.00;93620.41;5055514;28;20321;-59
2021/12/02 00:30:56;;;;;;;1.13;1.03;;;;;;;7.20;100.00;93612.69;5055766;28;20192;-59
2021/12/02 00:33:25;;;;;;;0.90;0.90;;;;;;;7.19;100.00;93608.47;5055858;28;20221;-58
2021/12/02 00:35:50;;;;;;;0.80;0.80;;;;;;;7.21;100.00;93622.34;5055692;28;20256;-58
2021/12/02 00:38:18;;;;;;;1.00;0.90;;;;;;;7.20;100.00;93607.25;5056202;28;20204;-53
2021/12/02 00:40:44;;;;;;;1.37;1.00;;;;;;;7.11;100.00;93615.25;5056068;28;20226;-56
2021/12/02 00:43:10;;;;;;;0.93;0.90;;;;;;;7.11;100.00;93611.75;5055545;28;20211;-54
2021/12/02 00:45:39;;;;;;;0.90;0.90;;;;;;;7.12;100.00;93611.34;5055299;28;20206;-53
2021/12/02 00:48:06;;;;;;;0.90;0.90;;;;;;;7.16;100.00;93609.31;5054667;28;20691;-55
2021/12/02 00:50:32;;;;;;;1.07;1.00;;;;;;;7.13;100.00;93598.53;5055502;28;20207;-55
2021/12/02 00:52:59;;;;;;;0.90;0.90;;;;;;;7.10;100.00;93619.13;5055069;28;20201;-55
2021/12/02 00:55:25;;;;;;;1.67;1.00;;;;;;;7.09;100.00;93617.63;5055161;28;20223;-55
2021/12/02 00:57:50;;;;;;;1.00;1.00;;;;;;;7.02;100.00;93606.91;5055120;28;20171;-51
2021/12/02 01:00:16;;;;;;;1.13;1.00;;;;;;;7.03;100.00;93607.69;5055159;28;20222;-58
2021/12/02 01:02:42;;;;;;;1.23;0.90;;;;;;;7.00;100.00;93624.81;5055549;28;20258;-59
2021/12/02 01:05:08;;;;;;;0.80;0.80;;;;;;;7.04;100.00;93610.00;5054806;28;20198;-59
2021/12/02 01:07:33;;;;;;;0.90;0.90;;;;;;;6.99;100.00;93618.63;5055435;28;20288;-58
2021/12/02 01:09:59;;;;;;;1.13;1.00;;;;;;;6.90;100.00;93602.19;5054949;28;20198;-59
2021/12/02 01:12:25;;;;;;;1.00;0.80;;;;;;;6.90;100.00;93607.59;5054964;28;20194;-59
2021/12/02 01:14:50;;;;;;;1.10;1.00;;;;;;;6.90;100.00;93610.31;5055019;28;20277;-54
2021/12/02 01:17:15;;;;;;;0.90;0.90;;;;;;;6.82;100.00;93608.97;5055370;28;20201;-59
2021/12/02 01:19:41;;;;;;;0.80;0.80;;;;;;;6.74;100.00;93599.47;5055355;28;20209;-64
2021/12/02 01:22:07;;;;;;;0.97;0.97;;;;;;;6.64;100.00;93608.59;5055081;28;20248;-64
2021/12/02 01:24:34;;;;;;;0.80;0.80;;;;;;;6.57;100.00;93608.75;5055496;28;20207;-65
2021/12/02 01:27:01;;;;;;;1.50;0.90;;;;;;;6.53;100.00;93608.06;5054906;28;20229;-65
2021/12/02 01:29:27;;;;;;;0.90;0.90;;;;;;;6.46;100.00;93600.88;5055105;28;20262;-64
2021/12/02 01:31:57;;;;;;;1.33;1.07;;;;;;;6.43;100.00;93566.47;5054961;28;20225;-64
2021/12/02 01:34:25;;;;;;;1.50;1.10;;;;;;;6.42;100.00;93607.53;5054485;28;20265;-60
2021/12/02 01:36:52;;;;;;;1.10;1.00;;;;;;;6.41;100.00;93590.50;5054593;28;20201;-53
2021/12/02 01:39:17;;;;;;;1.00;0.90;;;;;;;6.36;100.00;93582.09;5054308;28;20210;-52
2021/12/02 01:41:50;;;;;;;1.70;1.20;;;;;;;6.35;100.00;93586.00;5054512;28;20214;-53
2021/12/02 01:44:19;;;;;;;1.10;1.00;;;;;;;6.30;100.00;93603.53;5054527;28;20207;-53
2021/12/02 01:46:47;;;;;;;1.53;1.10;;;;;;;6.26;100.00;93599.34;5054686;28;20198;-52
2021/12/02 01:49:13;;;;;;;1.00;1.00;;;;;;;6.24;100.00;93607.16;5054284;28;20347;-55
2021/12/02 01:51:59;;;;;;;1.17;1.00;;;;;;;6.23;100.00;93602.91;5054517;28;20237;-60
2021/12/02 01:54:26;;;;;;;1.20;1.00;;;;;;;6.15;100.00;93598.81;5054478;28;20205;-54
2021/12/02 01:57:05;;;;;;;1.10;1.00;;;;;;;6.10;100.00;93596.59;5054133;28;20210;-54
2021/12/02 01:59:34;;;;;;;0.90;0.90;;;;;;;6.08;100.00;93598.94;5053139;28;20220;-55
2021/12/02 02:02:03;;;;;;;1.00;1.00;;;;;;;6.08;100.00;93597.03;5053714;28;20213;-54
2021/12/02 02:04:28;;;;;;;1.43;1.07;;;;;;;6.03;100.00;93602.94;5054196;28;20204;-53
2021/12/02 02:07:00;;;;;;;0.80;0.80;;;;;;;6.02;100.00;93600.66;5055013;28;20195;-54
2021/12/02 02:09:28;;;;;;;2.20;1.30;;;;;;;6.02;100.00;93606.06;5054302;28;20202;-58
2021/12/02 02:11:54;;;;;;;1.20;1.10;;;;;;;6.03;100.00;93607.59;5053932;28;20545;-54
2021/12/02 02:14:20;;;;;;;1.50;1.23;;;;;;;6.00;100.00;93600.28;5053592;28;20278;-56
2021/12/02 02:16:47;;;;;;;1.43;1.30;;;;;;;5.99;100.00;93607.66;5053724;28;20198;-54
2021/12/02 02:19:13;;;;;;;1.40;1.30;;;;;;;6.06;100.00;93609.47;5053530;28;20205;-55
2021/12/02 02:21:39;;;;;;;1.20;1.10;;;;;;;6.02;100.00;93611.47;5053431;28;20261;-55
2021/12/02 02:24:07;;;;;;;1.30;1.20;;;;;;;6.04;100.00;93619.94;5053712;28;20522;-54
2021/12/02 02:26:36;;;;;;;1.20;1.10;;;;;;;6.06;100.00;93617.59;5053310;28;20206;-55
2021/12/02 02:29:07;;;;;;;1.30;1.20;;;;;;;6.08;100.00;93615.22;5053400;28;20201;-61
2021/12/02 02:31:33;;;;;;;1.00;0.90;;;;;;;6.09;100.00;93622.19;5054063;28;20210;-61
2021/12/02 02:33:59;;;;;;;1.33;1.10;;;;;;;6.09;100.00;93605.91;5053699;28;20346;-60
2021/12/02 02:36:34;;;;;;;2.63;1.20;;;;;;;6.13;100.00;93606.59;5053632;28;20230;-59
2021/12/02 02:39:02;;;;;;;1.00;1.00;;;;;;;6.13;100.00;93612.78;5053645;28;20249;-60
2021/12/02 02:41:35;;;;;;;1.30;1.20;;;;;;;6.19;100.00;93615.75;5053016;28;20245;-60
2021/12/02 02:44:01;;;;;;;1.40;1.30;;;;;;;6.23;100.00;93608.34;5053512;28;20241;-60
2021/12/02 02:46:35;;;;;;;1.60;1.40;;;;;;;6.22;100.00;93613.00;5053516;28;20238;-62
2021/12/02 02:49:04;;;;;;;1.30;1.20;;;;;;;6.29;100.00;93614.78;5053342;28;20194;-60
2021/12/02 02:51:32;;;;;;;2.27;1.40;;;;;;;6.30;100.00;93602.75;5052827;28;20213;-53
2021/12/02 02:54:03;;;;;;;1.57;1.47;;;;;;;6.32;100.00;93613.94;5053175;28;20198;-53
2021/12/02 02:56:31;;;;;;;1.47;1.37;;;;;;;6.36;100.00;93609.22;5053349;28;20280;-54
2021/12/02 03:04:11;;;;;;;1.47;1.30;;;;;;;6.35;100.00;93618.53;5054373;28;20213;-50
2021/12/02 03:09:38;;;;;;;1.87;1.30;;;;;;;6.27;100.00;93628.75;5016209;28;20308;-51
2021/12/02 03:12:23;;;;;;;1.60;1.30;;;;;;;6.22;100.00;93625.75;5053028;28;20251;-53
2021/12/02 03:16:37;;;;;;;1.77;1.13;;;;;;;6.15;100.00;93620.47;5054294;28;20204;-55
2021/12/02 03:17:36;;;;;;;2.27;1.43;;;;;;;6.04;100.00;93622.66;5054144;28;20205;-50
2021/12/02 03:20:02;;;;;;;1.53;1.20;;;;;;;5.95;100.00;93617.03;5052999;28;20213;-53
2021/12/02 03:22:28;;;;;;;3.67;1.17;;;;;;;5.88;100.00;93623.38;5052339;28;20213;-55
2021/12/02 03:24:54;;;;;;;1.60;1.20;;;;;;;5.86;100.00;93624.94;5052583;28;20205;-64
2021/12/02 03:27:19;;;;;;;1.20;1.10;;;;;;;5.84;100.00;93628.09;5052791;28;20205;-65
2021/12/02 03:29:44;;;;;;;1.40;1.30;;;;;;;5.83;100.00;93620.38;5052928;28;20236;-64
2021/12/02 03:32:13;;;;;;;2.13;1.50;;;;;;;5.82;100.00;93645.91;5052885;28;20229;-65
2021/12/02 03:34:39;;;;;;;1.10;1.10;;;;;;;5.70;100.00;93643.78;5052584;28;20229;-64
2021/12/02 03:37:05;;;;;;;1.10;0.80;;;;;;;5.57;100.00;93664.53;5052677;28;20201;-64
2021/12/02 03:39:31;;;;;;;0.60;0.60;;;;;;;5.39;100.00;93662.13;5052217;28;20200;-64
2021/12/02 03:41:57;;;;;;;1.40;0.80;;;;;;;5.18;100.00;93662.50;5052569;28;20220;-53
2021/12/02 03:44:23;;;;;;;0.60;0.60;;;;;;;4.95;100.00;93659.00;5053110;28;20174;-56
2021/12/02 03:46:49;;;;;;;0.90;0.60;;;;;;;4.76;100.00;93659.66;5052434;28;20201;-59
2021/12/02 03:49:15;;;;;;;2.03;1.07;;;;;;;4.59;100.00;93663.38;5052701;28;20205;-58
2021/12/02 03:51:40;;;;;;;1.90;0.50;;;;;;;4.57;100.00;93665.72;5052824;28;20330;-57
2021/12/02 03:54:06;;;;;;;0.73;0.60;;;;;;;4.47;100.00;93661.22;5052046;28;20194;-58
2021/12/02 03:56:31;;;;;;;1.07;0.60;;;;;;;4.40;100.00;93653.22;5052616;28;20204;-58
2021/12/02 03:58:57;;;;;;;1.33;0.67;;;;;;;4.35;100.00;93653.66;5052168;28;20335;-58
2021/12/02 04:01:22;;;;;;;0.73;0.60;;;;;;;4.31;100.00;93647.56;5052726;28;20277;-51
2021/12/02 04:03:49;;;;;;;0.90;0.60;;;;;;;4.32;100.00;93646.38;5052350;28;20185;-65
2021/12/02 04:06:15;;;;;;;2.20;0.60;;;;;;;4.31;100.00;93648.31;5052465;28;20209;-65
2021/12/02 04:08:53;;;;;;;0.60;0.60;;;;;;;4.26;100.00;93645.31;5052176;28;20182;-65
2021/12/02 04:11:46;;;;;;;0.60;0.50;;;;;;;4.20;100.00;93646.91;5052675;28;20201;-65
2021/12/02 04:16:58;;;;;;;2.30;1.00;;;;;;;4.20;100.00;93641.53;5053486;28;20200;-66
2021/12/02 04:19:25;;;;;;;1.43;0.83;;;;;;;4.21;100.00;93643.81;5051619;28;20202;-63
2021/12/02 04:21:52;;;;;;;0.63;0.60;;;;;;;4.25;100.00;93643.75;5052263;28;20232;-53
2021/12/02 04:24:17;;;;;;;2.83;1.63;;;;;;;4.27;100.00;93638.72;5055680;28;20557;-54
2021/12/02 04:26:43;;;;;;;4.23;2.60;;;;;;;4.29;100.00;93631.00;5057677;28;20190;-54
2021/12/02 04:29:09;;;;;;;6.33;3.30;;;;;;;4.22;100.00;93636.50;5056293;28;20197;-57
2021/12/02 04:31:35;;;;;;;2.43;1.70;;;;;;;4.22;100.00;93634.53;5055679;28;20277;-55
2021/12/02 04:34:00;;;;;;;2.17;1.33;;;;;;;4.26;100.00;93635.25;5055794;28;20241;-56
2021/12/02 04:36:25;;;;;;;1.80;0.90;;;;;;;4.26;100.00;93639.91;5055975;28;20284;-51
2021/12/02 04:38:51;;;;;;;1.37;0.77;;;;;;;4.25;100.00;93627.56;5055839;28;20275;-65
2021/12/02 04:41:17;;;;;;;2.50;1.50;;;;;;;4.27;100.00;93630.63;5055698;28;20206;-60
2021/12/02 04:43:43;;;;;;;2.10;1.10;;;;;;;4.27;100.00;93619.81;5055131;28;20636;-60
2021/12/02 04:46:08;;;;;;;1.10;1.00;;;;;;;4.24;100.00;93621.41;5055371;28;20254;-60
2021/12/02 04:48:33;;;;;;;4.73;2.60;;;;;;;4.17;100.00;93631.53;5055301;28;20205;-60
2021/12/02 04:50:59;;;;;;;5.80;4.07;;;;;;;4.17;100.00;93631.53;5055495;28;20204;-60
2021/12/02 04:53:24;;;;;;;27.33;17.10;;;;;;;4.21;100.00;93626.84;5055782;28;20208;-60
2021/12/02 04:55:49;;;;;;;10.00;6.33;;;;;;;4.27;100.00;93628.69;5055202;28;20186;-64
2021/12/02 04:58:15;;;;;;;6.93;5.40;;;;;;;4.29;100.00;93628.28;5055242;28;20340;-65
2021/12/02 05:00:40;;;;;;;9.07;5.43;;;;;;;4.29;100.00;93628.28;5054939;28;20237;-66
2021/12/02 05:03:06;;;;;;;1.23;1.13;;;;;;;4.30;100.00;93635.97;5054961;28;20285;-66
2021/12/02 05:05:33;;;;;;;2.57;1.20;;;;;;;4.35;100.00;93637.47;5055671;28;20202;-65
2021/12/02 05:08:00;;;;;;;2.40;1.30;;;;;;;4.37;100.00;93633.19;5055328;28;20197;-65
2021/12/02 05:10:26;;;;;;;2.20;1.23;;;;;;;4.39;100.00;93633.53;5055238;28;20288;-64
2021/12/02 05:12:51;;;;;;;1.43;0.93;;;;;;;4.40;100.00;93631.63;5055328;28;20201;-61
2021/12/02 05:15:17;;;;;;;1.47;0.90;;;;;;;4.37;100.00;93627.78;5055090;28;20194;-60
2021/12/02 05:17:42;;;;;;;1.83;1.07;;;;;;;4.37;100.00;93625.06;5055688;28;20269;-64
2021/12/02 05:20:08;;;;;;;1.87;1.13;;;;;;;4.34;100.00;93631.31;5054803;28;20202;-64
2021/12/02 05:22:34;;;;;;;2.07;1.10;;;;;;;4.33;100.00;93631.72;5055108;28;20194;-63
2021/12/02 05:24:59;;;;;;;1.63;0.90;;;;;;;4.33;100.00;93629.00;5054959;28;20566;-64
2021/12/02 05:27:24;;;;;;;2.60;1.40;;;;;;;4.32;100.00;93635.56;5054772;28;20264;-63
2021/12/02 05:29:50;;;;;;;2.13;1.40;;;;;;;4.31;100.00;93637.53;5054669;28;20201;-63
2021/12/02 05:32:15;;;;;;;1.30;1.20;;;;;;;4.31;100.00;93637.53;5054793;28;20201;-61
2021/12/02 05:34:40;;;;;;;2.17;1.30;;;;;;;4.34;100.00;93630.53;5054736;28;20182;-61
2021/12/02 05:37:06;;;;;;;2.13;1.27;;;;;;;4.33;100.00;93637.88;5054619;28;20205;-61
2021/12/02 05:39:31;;;;;;;2.60;1.63;;;;;;;4.34;100.00;93638.63;5054660;28;20204;-61
2021/12/02 05:41:56;;;;;;;2.40;1.50;;;;;;;4.34;100.00;93631.31;5054485;28;20259;-61
2021/12/02 05:44:23;;;;;;;1.60;1.50;;;;;;;4.36;100.00;93628.19;5054144;28;20194;-62
2021/12/02 05:46:50;;;;;;;1.47;1.37;;;;;;;4.38;100.00;93632.03;5054388;28;20197;-63
2021/12/02 05:49:16;;;;;;;3.07;1.70;;;;;;;4.42;100.00;93626.56;5054088;28;20197;-62
2021/12/02 05:51:42;;;;;;;2.17;1.50;;;;;;;4.43;100.00;93622.69;5054399;28;20251;-56
2021/12/02 05:54:08;;;;;;;2.10;1.60;;;;;;;4.42;100.00;93616.53;5055146;28;20182;-58
2021/12/02 05:56:33;;;;;;;1.80;1.37;;;;;;;4.48;100.00;93627.63;5054259;28;20208;-58
2021/12/02 05:58:59;;;;;;;1.60;1.43;;;;;;;4.47;100.00;93620.69;5053777;28;20210;-57
2021/12/02 06:01:25;;;;;;;1.50;1.40;;;;;;;4.45;100.00;93631.16;5054159;28;20224;-58
2021/12/02 06:03:51;;;;;;;1.80;1.20;;;;;;;4.46;100.00;93633.44;5053796;28;20181;-59
2021/12/02 06:06:17;;;;;;;2.37;1.60;;;;;;;4.48;100.00;93638.44;5054385;28;20208;-59
2021/12/02 06:08:43;;;;;;;2.90;1.30;;;;;;;4.49;100.00;93626.47;5054157;28;20217;-64
2021/12/02 06:11:08;;;;;;;2.20;1.40;;;;;;;4.50;100.00;93627.97;5054188;28;20564;-59
2021/12/02 06:13:34;;;;;;;1.97;1.30;;;;;;;4.45;100.00;93631.16;5053611;28;20526;-60
2021/12/02 06:15:59;;;;;;;1.83;1.30;;;;;;;4.42;100.00;93621.16;5054029;28;20205;-64
2021/12/02 06:18:25;;;;;;;1.13;1.10;;;;;;;4.38;100.00;93625.84;5053839;28;20284;-64
2021/12/02 06:20:54;;;;;;;3.63;1.47;;;;;;;4.37;100.00;93624.31;5053735;28;20217;-63
2021/12/02 06:23:21;;;;;;;1.47;1.20;;;;;;;4.41;100.00;93630.44;5054273;28;20248;-63
2021/12/02 06:25:47;;;;;;;1.57;1.30;;;;;;;4.41;100.00;93625.03;5053706;28;20208;-62
2021/12/02 06:28:13;;;;;;;1.93;1.13;;;;;;;4.39;100.00;93627.38;5053592;28;20193;-58
2021/12/02 06:30:38;;;;;;;2.13;0.90;;;;;;;4.38;100.00;93621.22;5053548;28;20305;-61
2021/12/02 06:33:04;;;;;;;1.30;1.20;;;;;;;4.38;100.00;93628.53;5053025;28;20202;-61
2021/12/02 06:35:29;;;;;;;1.70;1.60;;;;;;;4.41;100.00;93638.53;5052993;28;20213;-63
2021/12/02 06:37:55;;;;;;;2.07;1.30;;;;;;;4.38;100.00;93634.72;5053629;28;20202;-61
2021/12/02 06:40:21;;;;;;;1.60;1.00;;;;;;;4.40;100.00;93639.72;5053656;28;20206;-60
2021/12/02 06:42:46;;;;;;;1.90;1.10;;;;;;;4.42;100.00;93648.16;5052699;28;20209;-60
2021/12/02 06:45:13;;;;;;;2.77;2.27;;;;;;;4.45;100.00;93656.25;5052768;28;20247;-61
2021/12/02 06:47:39;;;;;;;2.27;1.67;;;;;;;4.48;100.00;93657.38;5052981;28;20209;-62
2021/12/02 06:50:09;;;;;;;3.13;1.30;;;;;;;4.57;100.00;93663.78;5052875;28;20194;-56
2021/12/02 06:52:35;;;;;;;1.20;1.07;;;;;;;4.58;100.00;93667.25;5052836;28;20201;-53
2021/12/02 06:55:00;;;;;;;2.40;1.07;;;;;;;4.57;100.00;93665.72;5052730;28;20193;-56
2021/12/02 06:57:26;;;;;;;1.60;1.10;;;;;;;4.55;100.00;93671.53;5052889;28;20255;-56
2021/12/02 06:59:51;;;;;;;1.60;1.00;;;;;;;4.53;100.00;93673.88;5052544;28;20296;-58
2021/12/02 07:02:18;;;;;;;1.27;1.17;;;;;;;4.54;100.00;93669.22;5052676;28;20280;-54
2021/12/02 07:04:44;;;;;;;1.20;1.10;;;;;;;4.52;100.00;93666.19;5053295;28;20178;-59
2021/12/02 07:07:09;;;;;;;2.70;2.27;;;;;;;4.50;100.00;93665.81;5052853;28;20206;-59
2021/12/02 07:09:35;;;;;;;1.73;1.40;;;;;;;4.56;100.00;93675.00;5052972;28;20208;-61
2021/12/02 07:12:00;;;;;;;1.80;1.17;;;;;;;4.57;100.00;93671.13;5053017;28;20288;-59
2021/12/02 07:14:26;;;;;;;1.67;1.20;;;;;;;4.53;100.00;93665.00;5052757;28;20193;-59
2021/12/02 07:16:52;;;;;;;1.40;1.30;;;;;;;4.45;100.00;93675.16;5052675;28;20205;-58
2021/12/02 07:19:17;;;;;;;2.80;1.20;;;;;;;4.44;100.00;93672.88;5052767;28;20193;-59
2021/12/02 07:21:45;;;;;;;2.10;1.27;;;;;;;4.48;100.00;93674.31;5052276;28;20213;-57
2021/12/02 07:24:13;;;;;;;1.20;1.10;;;;;;;4.48;100.00;93676.28;5052775;28;20198;-59
2021/12/02 07:26:40;;;;;;;2.23;1.13;;;;;;;4.53;100.00;93682.00;5052130;28;20713;-58
2021/12/02 07:29:07;;;;;;;1.03;1.00;;;;;;;4.54;100.00;93672.72;5052861;28;20239;-58
2021/12/02 07:31:34;;;;;;;3.13;1.20;;;;;;;4.59;100.00;93679.59;5052232;28;20194;-60
2021/12/02 07:34:02;;;;;;;1.73;1.30;;;;;;;4.60;100.00;93686.53;5052032;28;20613;-59
2021/12/02 07:36:28;;;;;;;1.20;1.10;;;;;;;4.64;100.00;93681.84;5052566;28;20240;-58
2021/12/02 07:38:55;;;;;;;2.87;1.27;;;;;;;4.65;100.00;93686.84;5052893;28;20194;-60
2021/12/02 07:41:20;;;;;;;1.70;1.30;;;;;;;4.66;100.00;93695.72;5051794;28;20246;-58
2021/12/02 07:43:46;;;;;;;2.13;1.60;;;;;;;4.70;100.00;93699.16;5052605;28;20205;-58
2021/12/02 07:46:11;;;;;;;2.73;1.40;;;;;;;4.73;100.00;93696.38;5052389;28;20204;-59
2021/12/02 07:48:36;;;;;;;1.97;1.20;;;;;;;4.73;100.00;93690.22;5053620;28;20197;-59
2021/12/02 07:51:15;;;;;;;1.97;0.97;;;;;;;4.74;100.00;93691.75;5052003;28;20205;-58
2021/12/02 07:53:44;;;;;;;3.43;1.40;;;;;;;4.76;100.00;93694.78;5052795;28;20313;-58
2021/12/02 07:56:11;;;;;;;1.37;1.27;;;;;;;4.73;100.00;93690.22;5052312;28;20674;-58
2021/12/02 07:58:41;;;;;;;1.87;1.20;;;;;;;4.74;100.00;93687.09;5055130;28;20302;-54
2021/12/02 08:01:07;;;;;;;1.90;1.10;;;;;;;4.74;100.00;93686.34;5056477;28;20221;-49
2021/12/02 08:03:32;;;;;;;4.20;1.47;;;;;;;4.75;100.00;93693.28;5056434;28;20204;-47
2021/12/02 08:05:58;;;;;;;3.77;1.77;;;;;;;4.82;100.00;93691.25;5056167;28;20198;-51
2021/12/02 08:08:24;;;;;;;3.30;1.50;;;;;;;4.86;100.00;93693.88;5056095;28;20275;-48
2021/12/02 08:10:49;;;;;;;1.93;1.27;;;;;;;4.93;100.00;93691.09;5055782;28;20259;-48
2021/12/02 08:13:14;;;;;;;1.93;1.30;;;;;;;4.94;100.00;93684.50;5056429;28;20221;-45
2021/12/02 08:15:41;;;;;;;2.63;2.00;;;;;;;5.10;100.00;93684.66;5056191;28;20197;-51
2021/12/02 08:18:07;;;;;;;3.63;1.70;;;;;;;5.95;100.00;93684.75;5055662;28;20229;-60
2021/12/02 08:20:33;;;;;;;4.13;2.30;;;;;;;6.60;100.00;93684.59;5055927;28;20233;-60
2021/12/02 08:22:59;;;;;;;4.43;1.50;;;;;;;6.69;100.00;93687.50;5055823;28;20191;-60
2021/12/02 08:25:29;;;;;;;1.87;1.20;;;;;;;6.71;100.00;93690.56;5055677;28;20201;-60
2021/12/02 08:27:59;;;;;;;3.67;1.30;;;;;;;6.85;100.00;93705.78;5055443;28;20181;-62
2021/12/02 08:30:26;;;;;;;2.60;1.90;;;;;;;7.16;100.00;93704.28;5055953;28;20300;-60
2021/12/02 08:32:53;;;;;;;2.70;1.20;;;;;;;7.58;100.00;93707.97;5056132;28;20325;-61
2021/12/02 08:35:19;;;;;;;2.17;1.20;;;;;;;7.54;100.00;93705.31;5055856;28;20204;-60
2021/12/02 08:37:47;;;;;;;2.33;1.10;;;;;;;7.49;100.00;93713.22;5055542;28;20195;-61
2021/12/02 08:40:19;;;;;;;3.67;1.67;;;;;;;7.99;100.00;93716.22;5055228;28;20215;-60
2021/12/02 08:42:46;;;;;;;2.93;1.93;;;;;;;8.35;100.00;93706.75;5055762;28;20192;-61
2021/12/02 08:45:12;;;;;;;6.40;4.30;;;;;;;8.09;100.00;93710.50;5055300;28;20243;-62
2021/12/02 08:47:44;;;;;;;4.63;2.67;;;;;;;7.79;100.00;93704.72;5055303;28;20198;-62
2021/12/02 08:50:11;;;;;;;2.47;1.53;;;;;;;7.53;100.00;93711.94;5055337;28;20211;-62
2021/12/02 08:52:36;;;;;;;2.20;1.10;;;;;;;7.66;100.00;93706.59;5055864;28;20211;-63
2021/12/02 08:55:02;;;;;;;1.57;1.30;;;;;;;8.30;100.00;93710.00;5055763;28;20189;-50
2021/12/02 08:57:28;;;;;;;2.90;1.63;;;;;;;9.14;100.00;93713.00;5055723;28;20304;-53
2021/12/02 08:59:53;;;;;;;1.10;1.03;;;;;;;9.39;100.00;93714.97;5055562;28;20229;-54
2021/12/02 09:02:18;;;;;;;3.10;1.30;;;;;;;9.10;100.00;93711.56;5055608;28;20238;-53
2021/12/02 09:04:44;;;;;;;3.23;1.20;;;;;;;8.63;100.00;93714.13;5054874;28;20216;-54
2021/12/02 09:07:09;;;;;;;3.60;1.20;;;;;;;8.12;100.00;93717.06;5055412;28;20213;-50
2021/12/02 09:09:35;;;;;;;2.90;1.20;;;;;;;7.51;100.00;93717.06;5054746;28;20224;-46
2021/12/02 09:12:02;;;;;;;2.33;1.17;;;;;;;7.29;100.00;93718.75;5054898;28;20205;-54
2021/12/02 09:14:27;;;;;;;2.33;1.30;;;;;;;7.14;100.00;93714.78;5054926;28;20198;-60
2021/12/02 09:16:52;;;;;;;2.10;1.33;;;;;;;7.01;100.00;93721.31;5055147;28;20200;-48
2021/12/02 09:19:19;;;;;;;2.43;1.17;;;;;;;6.90;100.00;93718.84;5055709;28;20193;-50
2021/12/02 09:21:44;;;;;;;2.10;1.10;;;;;;;6.91;100.00;93704.09;5054654;28;20217;-57
2021/12/02 09:24:11;;;;;;;5.57;2.23;;;;;;;7.08;100.00;93711.06;5054795;28;20190;-47
2021/12/02 09:26:37;;;;;;;4.30;1.70;;;;;;;7.50;100.00;93707.34;5054730;28;20206;-49
2021/12/02 09:29:03;;;;;;;3.13;1.83;;;;;;;8.20;100.00;93707.53;5055197;28;20207;-50
2021/12/02 09:31:29;;;;;;;3.03;1.20;;;;;;;8.77;100.00;93700.13;5054687;28;20289;-60
2021/12/02 09:33:55;;;;;;;1.50;1.00;;;;;;;9.15;100.00;93700.91;5055286;28;20197;-47
2021/12/02 09:36:21;;;;;;;2.40;1.20;;;;;;;9.03;100.00;93696.22;5054612;28;20201;-48
2021/12/02 09:38:46;;;;;;;3.53;1.50;;;;;;;9.37;100.00;93709.94;5054535;28;20197;-48
2021/12/02 09:41:12;;;;;;;2.17;1.20;;;;;;;9.35;100.00;93712.38;5054008;28;20248;-51
2021/12/02 09:43:38;;;;;;;2.97;1.43;;;;;;;9.16;100.00;93716.06;5054144;28;20202;-45
2021/12/02 09:46:04;;;;;;;2.97;1.30;;;;;;;9.03;100.00;93707.13;5054655;28;20201;-49
2021/12/02 09:48:30;;;;;;;1.77;1.10;;;;;;;8.64;100.00;93706.72;5054150;28;20221;-59
2021/12/02 09:51:07;;;;;;;1.77;1.10;;;;;;;8.01;100.00;93717.34;5054792;28;20198;-58
2021/12/02 09:53:38;;;;;;;1.67;1.20;;;;;;;7.83;100.00;93708.13;5054512;28;20173;-59
2021/12/02 09:58:35;;;;;;;3.47;1.20;;;;;;;7.40;100.00;93692.09;5055491;28;20330;-58
2021/12/02 10:03:34;;;;;;;2.23;1.03;;;;;;;7.22;100.00;93691.75;5055250;28;20226;-58
2021/12/02 10:06:15;;;;;;;3.43;1.27;;;;;;;7.26;100.00;93697.88;5054154;28;20205;-58
2021/12/02 10:09:35;;;;;;;2.37;1.17;;;;;;;7.12;100.00;93687.34;5054660;28;20253;-62
2021/12/02 10:11:51;;;;;;;1.47;1.20;;;;;;;7.21;100.00;93684.03;5044058;28;20199;-49
2021/12/02 10:14:23;;;;;;;2.30;1.23;;;;;;;7.25;100.00;93690.88;5054030;28;20208;-46
2021/12/02 10:16:52;;;;;;;1.10;1.00;;;;;;;7.22;100.00;93685.56;5053917;28;20238;-45
2021/12/02 10:19:21;;;;;;;1.87;1.47;;;;;;;7.21;100.00;93673.91;5053784;28;20300;-46
2021/12/02 10:21:56;;;;;;;4.07;1.40;;;;;;;7.32;100.00;93679.88;5053136;28;20219;-45
2021/12/02 10:24:25;;;;;;;3.40;2.27;;;;;;;7.34;100.00;93676.72;5054819;28;20191;-46
2021/12/02 10:27:00;;;;;;;2.30;1.30;;;;;;;7.31;100.00;93667.50;5053428;28;20191;-59
2021/12/02 10:29:36;;;;;;;1.20;1.10;;;;;;;7.22;100.00;93670.03;5053871;28;20277;-57
2021/12/02 10:32:16;;;;;;;2.53;1.00;;;;;;;7.40;100.00;93659.53;5053276;28;20203;-57
2021/12/02 10:34:56;;;;;;;1.70;1.07;;;;;;;7.50;100.00;93655.75;5053752;28;20211;-59
2021/12/02 10:37:30;;;;;;;1.77;1.10;;;;;;;7.54;100.00;93667.28;5053735;28;20208;-59
2021/12/02 10:39:55;;;;;;;2.07;1.20;;;;;;;7.55;100.00;93655.28;5053853;28;20257;-58
2021/12/02 10:42:22;;;;;;;2.77;1.20;;;;;;;7.61;100.00;93652.81;5053399;28;20212;-58
2021/12/02 10:44:47;;;;;;;3.03;1.03;;;;;;;7.64;100.00;93660.84;5053526;28;20198;-55
2021/12/02 10:47:15;;;;;;;2.90;1.43;;;;;;;7.55;100.00;93655.28;5053038;28;20229;-54
2021/12/02 10:49:44;;;;;;;4.37;1.20;;;;;;;7.52;100.00;93650.69;5053000;28;20204;-54
2021/12/02 10:52:16;;;;;;;2.47;1.30;;;;;;;7.47;100.00;93653.91;5052646;28;20192;-56
2021/12/02 10:54:45;;;;;;;1.93;1.27;;;;;;;7.55;100.00;93649.06;5053443;28;20233;-54
2021/12/02 10:57:19;;;;;;;1.93;1.20;;;;;;;7.54;100.00;93642.84;5053083;28;20199;-55
2021/12/02 10:59:52;;;;;;;1.80;1.30;;;;;;;7.56;100.00;93639.72;5052939;28;20204;-54
2021/12/02 11:02:31;;;;;;;4.97;1.30;;;;;;;7.56;100.00;93635.06;5052771;28;20222;-59
2021/12/02 11:05:24;;;;;;;2.47;1.73;;;;;;;7.52;100.00;93628.97;5053357;28;20217;-64
2021/12/02 11:08:05;;;;;;;1.93;1.10;;;;;;;7.51;100.00;93622.00;5048890;28;20234;-58
2021/12/02 11:10:51;;;;;;;3.20;1.23;;;;;;;7.49;100.00;93629.81;5052973;28;20204;-57
2021/12/02 11:13:24;;;;;;;1.13;0.93;;;;;;;7.40;100.00;93626.94;5052855;28;20289;-54
2021/12/02 11:15:50;;;;;;;2.03;1.23;;;;;;;7.40;100.00;93626.94;5052911;28;20281;-56
2021/12/02 11:18:16;;;;;;;7.80;1.27;;;;;;;7.31;100.00;93626.75;5053257;28;20287;-56
2021/12/02 11:20:51;;;;;;;2.27;1.20;;;;;;;7.26;100.00;93629.22;5051759;28;20218;-65
2021/12/02 11:23:20;;;;;;;1.87;1.10;;;;;;;7.16;100.00;93632.97;5053107;28;20202;-67
2021/12/02 11:25:59;;;;;;;2.87;1.13;;;;;;;7.28;100.00;93624.91;5052566;28;20181;-51
2021/12/02 11:28:28;;;;;;;2.67;1.50;;;;;;;7.42;100.00;93618.34;5052563;28;20229;-53
2021/12/02 11:30:54;;;;;;;3.67;1.63;;;;;;;7.45;100.00;93620.97;5052321;28;20222;-50
2021/12/02 11:33:20;;;;;;;2.20;1.10;;;;;;;7.61;100.00;93625.63;5052776;28;20203;-46
2021/12/02 11:35:47;;;;;;;2.37;1.27;;;;;;;7.85;100.00;93619.53;5052608;28;20559;-44
2021/12/02 11:38:24;;;;;;;4.47;1.40;;;;;;;8.03;100.00;93603.53;5052372;28;20211;-49
2021/12/02 11:40:54;;;;;;;3.97;1.43;;;;;;;8.11;100.00;93602.13;5053135;28;20243;-54
2021/12/02 11:43:23;;;;;;;3.67;1.97;;;;;;;8.24;100.00;93600.25;5052725;28;20222;-46
2021/12/02 11:45:50;;;;;;;2.57;1.20;;;;;;;8.23;100.00;93592.53;5052676;28;20208;-50
2021/12/02 11:48:22;;;;;;;2.00;1.10;;;;;;;8.23;100.00;93595.97;5052067;28;20177;-51
2021/12/02 11:50:50;;;;;;;1.13;1.03;;;;;;;8.12;100.00;93595.50;5052311;28;20705;-52
2021/12/02 11:53:21;;;;;;;2.20;1.03;;;;;;;8.12;100.00;93590.06;5052536;28;20263;-47
2021/12/02 11:55:48;;;;;;;3.03;1.50;;;;;;;8.27;100.00;93596.63;5053399;28;20199;-46